createdAt,value
2018-05-21T00:01:09.677Z,19.10
2018-05-21T00:06:05.891Z,18.80
2018-05-21T00:08:33.238Z,19.30
2018-05-21T00:11:00.559Z,19.80
2018-05-21T00:13:28.622Z,19.40
2018-05-21T00:15:56.818Z,18.60
2018-05-21T00:18:24.073Z,19.10
2018-05-21T00:20:51.359Z,18.90
2018-05-21T00:23:18.621Z,18.40
2018-05-21T00:25:45.877Z,18.90
2018-05-21T00:30:41.362Z,19.90
2018-05-21T00:33:08.636Z,20.40
2018-05-21T00:35:36.666Z,20.60
2018-05-21T00:38:04.760Z,20.80
2018-05-21T00:40:32.805Z,20.00
2018-05-21T00:45:29.312Z,20.40
2018-05-21T00:50:24.919Z,21.00
2018-05-21T00:55:32.928Z,21.10
2018-05-21T00:58:00.247Z,21.00
2018-05-21T01:00:28.270Z,20.80
2018-05-21T01:02:55.572Z,19.80
2018-05-21T01:05:23.721Z,19.70
2018-05-21T01:10:19.235Z,19.50
2018-05-21T01:12:46.708Z,19.90
2018-05-21T01:15:13.986Z,20.10
2018-05-21T01:20:09.547Z,19.40
2018-05-21T01:25:05.158Z,19.60
2018-05-21T01:27:32.442Z,19.90
2018-05-21T01:29:59.741Z,20.30
2018-05-21T01:34:55.258Z,21.00
2018-05-21T01:39:51.446Z,20.60
2018-05-21T01:42:19.480Z,20.40
2018-05-21T01:44:47.614Z,20.10
2018-05-21T01:47:14.898Z,20.00
2018-05-21T01:49:42.209Z,19.70
2018-05-21T01:52:09.475Z,19.90
2018-05-21T01:54:37.512Z,19.50
2018-05-21T01:57:05.591Z,19.20
2018-05-21T01:59:32.923Z,19.70
2018-05-21T02:02:01.114Z,20.20
2018-05-21T02:06:56.690Z,20.10
2018-05-21T02:11:52.227Z,19.80
2018-05-21T02:14:19.592Z,19.60
2018-05-21T02:16:47.643Z,19.40
2018-05-21T02:19:14.974Z,19.20
2018-05-21T02:21:43.137Z,18.50
2018-05-21T02:24:10.418Z,18.80
2018-05-21T02:26:37.735Z,19.30
2018-05-21T02:29:05.024Z,19.10
2018-05-21T02:34:00.573Z,18.30
2018-05-21T02:38:57.085Z,18.70
2018-05-21T02:43:53.401Z,19.10
2018-05-21T02:48:49.266Z,19.40
2018-05-21T02:51:16.542Z,19.50
2018-05-21T02:56:12.273Z,20.20
2018-05-21T02:58:39.582Z,20.70
2018-05-21T03:01:07.079Z,21.10
2018-05-21T03:03:34.367Z,20.50
2018-05-21T03:06:02.501Z,19.10
2018-05-21T03:08:29.782Z,19.40
2018-05-21T03:10:57.830Z,19.90
2018-05-21T03:15:53.350Z,19.70
2018-05-21T03:18:20.646Z,19.80
2018-05-21T03:25:44.822Z,21.10
2018-05-21T03:30:41.226Z,19.40
2018-05-21T03:33:08.534Z,19.60
2018-05-21T03:38:05.604Z,19.20
2018-05-21T03:40:33.629Z,19.10
2018-05-21T03:43:00.930Z,18.60
2018-05-21T03:45:29.009Z,18.00
2018-05-21T03:47:57.109Z,18.80
2018-05-21T03:50:24.441Z,19.80
2018-05-21T03:52:52.099Z,20.80
2018-05-21T03:57:48.231Z,22.00
2018-05-21T04:03:02.178Z,22.50
2018-05-21T04:07:58.678Z,20.60
2018-05-21T04:10:25.986Z,19.40
2018-05-21T04:12:54.110Z,18.70
2018-05-21T04:15:21.382Z,19.50
2018-05-21T04:17:49.394Z,20.50
2018-05-21T04:22:44.918Z,21.60
2018-05-21T04:32:37.735Z,21.50
2018-05-21T04:35:05.146Z,21.30
2018-05-21T04:37:33.218Z,21.20
2018-05-21T04:42:29.493Z,21.20
2018-05-21T04:44:57.679Z,21.40
2018-05-21T04:49:53.974Z,21.50
2018-05-21T04:54:49.714Z,21.60
2018-05-21T04:57:16.985Z,22.00
2018-05-21T04:59:44.258Z,22.20
2018-05-21T05:04:39.825Z,22.50
2018-05-21T05:07:07.858Z,22.50
2018-05-21T05:09:35.979Z,22.50
2018-05-21T05:12:03.303Z,22.60
2018-05-21T05:14:30.554Z,22.60
2018-05-21T05:16:57.958Z,22.70
2018-05-21T05:19:25.986Z,22.80
2018-05-21T05:24:21.465Z,22.90
2018-05-21T05:29:16.985Z,23.40
2018-05-21T05:31:45.015Z,23.00
2018-05-21T05:34:13.038Z,23.10
2018-05-21T05:39:08.511Z,23.20
2018-05-21T05:41:36.680Z,23.20
2018-05-21T05:46:32.165Z,22.70
2018-05-21T05:48:59.486Z,22.30
2018-05-21T05:51:26.759Z,22.50
2018-05-21T05:56:22.304Z,21.30
2018-05-21T06:01:17.778Z,20.80
2018-05-21T06:03:45.822Z,20.50
2018-05-21T06:06:13.874Z,20.90
2018-05-21T06:11:09.402Z,21.50
2018-05-21T06:13:37.421Z,21.00
2018-05-21T06:16:04.825Z,20.20
2018-05-21T06:18:33.082Z,19.90
2018-05-21T06:21:00.379Z,19.60
2018-05-21T06:23:27.757Z,19.60
2018-05-21T06:25:55.173Z,19.80
2018-05-21T06:28:23.277Z,20.00
2018-05-21T06:30:51.347Z,20.40
2018-05-21T06:35:46.886Z,20.80
2018-05-21T06:38:14.987Z,20.80
2018-05-21T06:40:42.246Z,21.20
2018-05-21T06:48:06.938Z,21.90
2018-05-21T06:50:34.950Z,22.60
2018-05-21T06:55:30.459Z,23.30
2018-05-21T06:57:57.754Z,23.00
2018-05-21T07:00:25.794Z,22.80
2018-05-21T07:05:21.307Z,22.70
2018-05-21T07:07:48.627Z,22.30
2018-05-21T07:10:15.941Z,20.80
2018-05-21T07:12:44.291Z,20.50
2018-05-21T07:17:39.760Z,21.00
2018-05-21T07:22:35.306Z,21.80
2018-05-21T07:25:03.542Z,22.50
2018-05-21T07:29:59.094Z,22.00
2018-05-21T07:32:27.125Z,21.50
2018-05-21T07:37:22.787Z,22.70
2018-05-21T07:39:50.079Z,23.20
2018-05-21T07:44:45.642Z,23.20
2018-05-21T07:47:12.932Z,22.10
2018-05-21T07:49:40.275Z,21.80
2018-05-21T07:52:08.350Z,22.20
2018-05-21T07:57:03.850Z,22.50
2018-05-21T07:59:31.962Z,22.40
2018-05-21T08:01:59.776Z,23.20
2018-05-21T08:06:55.505Z,23.60
2018-05-21T08:09:23.542Z,23.50
2018-05-21T08:11:50.928Z,23.10
2018-05-21T08:14:18.228Z,23.60
2018-05-21T08:16:45.643Z,24.60
2018-05-21T08:19:13.711Z,25.20
2018-05-21T08:24:09.571Z,26.30
2018-05-21T08:26:36.988Z,25.90
2018-05-21T08:29:05.044Z,24.70
2018-05-21T08:31:33.106Z,24.90
2018-05-21T08:34:00.447Z,24.30
2018-05-21T08:36:28.498Z,24.10
2018-05-21T08:38:55.930Z,24.30
2018-05-21T08:41:23.999Z,24.70
2018-05-21T08:43:52.222Z,25.70
2018-05-21T08:48:48.192Z,27.00
2018-05-21T08:51:15.555Z,26.90
2018-05-21T08:53:42.983Z,26.20
2018-05-21T08:56:11.066Z,26.80
2018-05-21T09:03:35.593Z,28.10
2018-05-21T09:08:31.177Z,27.70
2018-05-21T09:10:59.347Z,28.20
2018-05-21T09:13:27.539Z,28.40
2018-05-21T09:15:54.898Z,28.80
2018-05-21T09:18:22.985Z,28.50
2018-05-21T09:20:50.372Z,28.70
2018-05-21T09:23:17.634Z,29.20
2018-05-21T09:25:45.781Z,29.40
2018-05-21T09:28:13.155Z,29.50
2018-05-21T09:30:40.760Z,29.80
2018-05-21T09:33:08.832Z,29.90
2018-05-21T09:35:36.138Z,30.10
2018-05-21T09:38:04.231Z,30.00
2018-05-21T09:40:32.297Z,29.90
2018-05-21T09:45:27.902Z,29.80
2018-05-21T09:47:55.321Z,29.80
2018-05-21T09:50:22.613Z,29.90
2018-05-21T09:55:19.015Z,29.70
2018-05-21T10:02:43.015Z,30.50
2018-05-21T10:05:11.117Z,30.70
2018-05-21T10:07:38.504Z,31.00
2018-05-21T10:10:06.579Z,31.30
2018-05-21T10:15:05.448Z,32.00
2018-05-21T10:17:32.864Z,32.50
2018-05-21T10:20:01.026Z,32.70
2018-05-21T10:22:29.185Z,32.50
2018-05-21T10:24:56.506Z,32.70
2018-05-21T10:32:21.900Z,33.20
2018-05-21T10:34:50.096Z,33.10
2018-05-21T10:37:17.423Z,32.80
2018-05-21T10:39:44.789Z,33.00
2018-05-21T10:42:12.105Z,33.30
2018-05-21T10:44:40.210Z,33.40
2018-05-21T10:49:36.200Z,33.40
2018-05-21T10:52:03.959Z,33.00
2018-05-21T10:54:31.615Z,33.00
2018-05-21T10:57:00.022Z,33.70
2018-05-21T10:59:28.387Z,33.50
2018-05-21T11:01:56.588Z,33.30
2018-05-21T11:04:24.015Z,33.30
2018-05-21T11:06:51.412Z,33.40
2018-05-21T11:09:19.564Z,33.10
2018-05-21T11:11:47.068Z,33.10
2018-05-21T11:14:14.396Z,33.80
2018-05-21T11:19:11.023Z,34.40
2018-05-21T11:21:40.039Z,34.80
2018-05-21T11:24:08.447Z,34.30
2018-05-21T11:26:35.842Z,33.90
2018-05-21T11:31:32.393Z,34.70
2018-05-21T11:33:59.899Z,34.80
2018-05-21T11:36:27.454Z,34.50
2018-05-21T11:38:55.482Z,34.00
2018-05-21T11:43:51.214Z,33.70
2018-05-21T11:46:18.838Z,34.30
2018-05-21T11:51:14.903Z,34.00
2018-05-21T11:58:39.815Z,33.50
2018-05-21T12:01:07.430Z,33.30
2018-05-21T12:03:35.529Z,33.60
2018-05-21T12:06:03.845Z,34.30
2018-05-21T12:08:31.242Z,34.70
2018-05-21T12:10:59.352Z,35.00
2018-05-21T12:13:27.628Z,34.50
2018-05-21T12:15:58.966Z,34.50
2018-05-21T12:23:38.539Z,34.20
2018-05-21T12:26:05.892Z,34.10
2018-05-21T12:28:34.056Z,34.00
2018-05-21T12:31:01.671Z,33.90
2018-05-21T12:33:30.642Z,34.10
2018-05-21T12:38:33.886Z,34.00
2018-05-21T12:43:31.376Z,33.70
2018-05-21T12:45:58.696Z,33.50
2018-05-21T12:48:26.820Z,33.80
2018-05-21T12:50:54.170Z,34.20
2018-05-21T12:53:21.663Z,34.50
2018-05-21T12:55:49.214Z,34.30
2018-05-21T12:58:17.550Z,34.20
2018-05-21T13:00:45.135Z,34.40
2018-05-21T13:03:12.687Z,34.30
2018-05-21T13:05:42.434Z,34.00
2018-05-21T13:08:12.259Z,34.00
2018-05-21T13:10:40.453Z,33.90
2018-05-21T13:13:08.346Z,34.00
2018-05-21T13:15:35.714Z,34.00
2018-05-21T13:18:03.228Z,33.60
2018-05-21T13:20:32.162Z,33.40
2018-05-21T13:23:03.384Z,33.40
2018-05-21T13:25:31.205Z,33.40
2018-05-21T13:28:01.451Z,33.60
2018-05-21T13:30:28.783Z,33.90
2018-05-21T13:32:56.110Z,34.00
2018-05-21T13:35:25.418Z,33.90
2018-05-21T13:37:56.360Z,33.40
2018-05-21T13:40:25.650Z,33.00
2018-05-21T13:42:52.964Z,32.70
2018-05-21T13:45:21.170Z,32.50
2018-05-21T13:47:49.311Z,32.30
2018-05-21T13:50:18.607Z,32.10
2018-05-21T13:52:46.062Z,32.40
2018-05-21T13:55:15.149Z,32.40
2018-05-21T13:57:45.983Z,31.90
2018-05-21T14:00:15.048Z,31.80
2018-05-21T14:02:49.295Z,31.60
2018-05-21T14:05:22.075Z,31.70
2018-05-21T14:07:51.029Z,31.60
2018-05-21T14:10:19.168Z,31.50
2018-05-21T14:12:49.178Z,31.50
2018-05-21T14:15:22.375Z,31.00
2018-05-21T14:18:04.082Z,30.40
2018-05-21T14:20:44.857Z,30.30
2018-05-21T14:23:15.838Z,30.60
2018-05-21T14:25:54.360Z,30.60
2018-05-21T14:28:24.466Z,30.60
2018-05-21T14:30:55.955Z,30.70
2018-05-21T14:33:28.073Z,30.80
2018-05-21T14:36:03.818Z,30.70
2018-05-21T14:38:40.910Z,30.00
2018-05-21T14:41:12.693Z,30.00
2018-05-21T14:43:45.093Z,30.30
2018-05-21T14:46:15.411Z,30.50
2018-05-21T14:48:43.719Z,30.10
2018-05-21T14:51:14.225Z,29.70
2018-05-21T14:53:44.777Z,29.70
2018-05-21T14:56:13.171Z,30.00
2018-05-21T14:58:44.314Z,29.80
2018-05-21T15:01:12.383Z,29.70
2018-05-21T15:03:43.903Z,29.70
2018-05-21T15:06:11.458Z,29.70
2018-05-21T15:08:38.798Z,29.60
2018-05-21T15:11:07.047Z,29.50
2018-05-21T15:13:34.386Z,29.30
2018-05-21T15:16:02.627Z,29.30
2018-05-21T15:18:31.894Z,29.00
2018-05-21T15:21:02.891Z,28.90
2018-05-21T15:23:31.107Z,28.80
2018-05-21T15:26:02.358Z,28.80
2018-05-21T15:28:32.368Z,28.70
2018-05-21T15:31:03.172Z,28.60
2018-05-21T15:33:32.466Z,28.50
2018-05-21T15:36:00.953Z,28.50
2018-05-21T15:38:31.995Z,28.40
2018-05-21T15:41:05.088Z,28.30
2018-05-21T15:43:35.101Z,28.30
2018-05-21T15:46:05.670Z,28.30
2018-05-21T15:48:33.133Z,28.20
2018-05-21T15:51:01.524Z,28.20
2018-05-21T15:53:31.847Z,28.30
2018-05-21T15:56:01.516Z,28.30
2018-05-21T15:58:32.163Z,28.30
2018-05-21T16:01:01.370Z,28.20
2018-05-21T16:03:30.487Z,28.20
2018-05-21T16:05:59.724Z,28.00
2018-05-21T16:08:34.563Z,27.90
2018-05-21T16:11:03.608Z,27.90
2018-05-21T16:13:32.591Z,28.00
2018-05-21T16:16:03.878Z,28.00
2018-05-21T16:18:36.950Z,28.00
2018-05-21T16:21:06.244Z,27.90
2018-05-21T16:23:38.519Z,27.80
2018-05-21T16:26:11.319Z,27.70
2018-05-21T16:28:39.738Z,27.70
2018-05-21T16:31:08.190Z,27.70
2018-05-21T16:33:39.322Z,27.70
2018-05-21T16:36:15.386Z,27.70
2018-05-21T16:38:44.508Z,27.70
2018-05-21T16:41:16.637Z,27.70
2018-05-21T16:43:44.062Z,27.70
2018-05-21T16:46:12.172Z,27.80
2018-05-21T16:48:41.574Z,27.90
2018-05-21T16:51:12.591Z,28.10
2018-05-21T16:53:41.630Z,28.20
2018-05-21T16:56:10.963Z,28.20
2018-05-21T16:58:38.334Z,28.30
2018-05-21T17:01:08.522Z,28.40
2018-05-21T17:03:36.176Z,28.30
2018-05-21T17:06:06.782Z,28.30
2018-05-21T17:08:36.911Z,28.30
2018-05-21T17:11:04.460Z,28.40
2018-05-21T17:13:31.890Z,28.40
2018-05-21T17:16:01.609Z,28.40
2018-05-21T17:18:42.471Z,28.40
2018-05-21T17:21:11.491Z,28.40
2018-05-21T17:23:41.338Z,28.30
2018-05-21T17:26:09.620Z,28.10
2018-05-21T17:28:38.561Z,28.00
2018-05-21T17:31:08.781Z,28.00
2018-05-21T17:33:37.096Z,28.10
2018-05-21T17:36:07.858Z,28.10
2018-05-21T17:38:35.999Z,28.10
2018-05-21T17:41:04.955Z,28.00
2018-05-21T17:43:33.490Z,28.00
2018-05-21T17:46:01.672Z,28.00
2018-05-21T17:48:33.606Z,28.00
2018-05-21T17:51:02.896Z,28.00
2018-05-21T17:53:32.637Z,28.00
2018-05-21T17:56:00.066Z,28.00
2018-05-21T17:58:35.258Z,27.90
2018-05-21T18:01:05.285Z,27.80
2018-05-21T18:03:34.259Z,27.80
2018-05-21T18:06:05.364Z,27.80
2018-05-21T18:08:35.380Z,27.80
2018-05-21T18:11:03.612Z,27.80
2018-05-21T18:13:32.708Z,27.80
2018-05-21T18:16:02.495Z,27.80
2018-05-21T18:18:34.658Z,27.80
2018-05-21T18:21:03.877Z,27.80
2018-05-21T18:23:34.326Z,27.80
2018-05-21T18:26:03.542Z,27.80
2018-05-21T18:28:32.746Z,27.80
2018-05-21T18:31:01.794Z,27.80
2018-05-21T18:33:32.393Z,27.80
2018-05-21T18:36:03.556Z,27.70
2018-05-21T18:38:34.588Z,27.70
2018-05-21T18:41:03.823Z,27.50
2018-05-21T18:43:35.564Z,26.60
2018-05-21T18:46:07.616Z,25.80
2018-05-21T18:48:43.757Z,24.40
2018-05-21T18:51:15.013Z,23.50
2018-05-21T18:53:45.389Z,23.00
2018-05-21T18:56:16.368Z,22.70
2018-05-21T18:58:50.502Z,22.10
2018-05-21T19:01:20.453Z,22.40
2018-05-21T19:03:50.590Z,22.40
2018-05-21T19:06:21.018Z,22.10
2018-05-21T19:08:51.015Z,21.90
2018-05-21T19:11:21.812Z,22.20
2018-05-21T19:13:51.002Z,22.00
2018-05-21T19:16:18.666Z,22.00
2018-05-21T19:18:46.071Z,21.90
2018-05-21T19:21:17.951Z,21.70
2018-05-21T19:23:49.248Z,21.60
2018-05-21T19:26:18.448Z,21.80
2018-05-21T19:28:45.848Z,21.30
2018-05-21T19:31:13.977Z,20.70
2018-05-21T19:33:43.962Z,20.70
2018-05-21T19:36:13.115Z,20.90
2018-05-21T19:38:41.398Z,20.50
2018-05-21T19:41:10.840Z,20.20
2018-05-21T19:43:38.209Z,20.50
2018-05-21T19:46:06.321Z,20.40
2018-05-21T19:48:34.743Z,20.60
2018-05-21T19:51:03.795Z,21.60
2018-05-21T19:53:31.947Z,21.90
2018-05-21T19:56:01.917Z,21.80
2018-05-21T19:58:33.775Z,21.60
2018-05-21T20:01:01.127Z,20.90
2018-05-21T20:03:29.290Z,20.30
2018-05-21T20:05:59.323Z,19.80
2018-05-21T20:08:27.622Z,19.60
2018-05-21T20:10:57.037Z,19.40
2018-05-21T20:13:29.229Z,19.30
2018-05-21T20:16:02.828Z,19.10
2018-05-21T20:18:39.097Z,18.80
2018-05-21T20:21:10.160Z,18.60
2018-05-21T20:23:41.253Z,18.60
2018-05-21T20:26:10.706Z,18.40
2018-05-21T20:28:39.022Z,18.50
2018-05-21T20:31:07.363Z,18.50
2018-05-21T20:33:34.814Z,18.60
2018-05-21T20:36:02.326Z,18.70
2018-05-21T20:38:31.313Z,18.90
2018-05-21T20:43:29.418Z,19.40
2018-05-21T20:45:56.806Z,19.60
2018-05-21T20:48:24.150Z,19.50
2018-05-21T20:50:51.558Z,19.50
2018-05-21T20:53:22.794Z,19.50
2018-05-21T20:55:54.023Z,19.10
2018-05-21T20:58:22.538Z,19.10
2018-05-21T21:00:53.680Z,19.40
2018-05-21T21:03:22.639Z,19.40
2018-05-21T21:05:50.794Z,19.90
2018-05-21T21:08:18.126Z,20.20
2018-05-21T21:10:46.322Z,20.50
2018-05-21T21:13:18.235Z,20.80
2018-05-21T21:15:46.761Z,21.50
2018-05-21T21:18:16.756Z,21.60
2018-05-21T21:20:47.518Z,21.30
2018-05-21T21:23:19.348Z,20.50
2018-05-21T21:25:46.595Z,21.20
2018-05-21T21:28:17.550Z,20.70
2018-05-21T21:30:48.566Z,20.00
2018-05-21T21:33:18.719Z,19.70
2018-05-21T21:35:57.206Z,19.90
2018-05-21T21:38:25.313Z,19.60
2018-05-21T21:40:59.795Z,19.20
2018-05-21T21:43:27.297Z,18.70
2018-05-21T21:45:54.711Z,18.80
2018-05-21T21:48:23.795Z,19.20
2018-05-21T21:50:55.471Z,19.20
2018-05-21T21:53:32.194Z,19.20
2018-05-21T21:56:00.956Z,19.10
2018-05-21T21:58:29.125Z,19.10
2018-05-21T22:00:58.266Z,19.50
2018-05-21T22:03:26.488Z,19.90
2018-05-21T22:05:55.595Z,20.30
2018-05-21T22:08:23.013Z,20.50
2018-05-21T22:10:51.551Z,20.40
2018-05-21T22:13:27.699Z,20.50
2018-05-21T22:15:56.927Z,21.20
2018-05-21T22:18:25.903Z,21.80
2018-05-21T22:20:55.127Z,22.20
2018-05-21T22:23:23.202Z,21.60
2018-05-21T22:25:50.599Z,20.90
2018-05-21T22:28:18.042Z,21.10
2018-05-21T22:30:45.425Z,20.40
2018-05-21T22:33:13.077Z,19.90
2018-05-21T22:35:40.405Z,19.60
2018-05-21T22:38:08.971Z,19.10
2018-05-21T22:40:37.046Z,18.80
2018-05-21T22:43:05.453Z,19.00
2018-05-21T22:45:33.425Z,19.60
2018-05-21T22:48:00.741Z,19.10
2018-05-21T22:50:28.847Z,19.10
2018-05-21T22:52:56.832Z,19.40
2018-05-21T22:55:24.942Z,19.10
2018-05-21T22:57:52.256Z,19.40
2018-05-21T23:00:20.178Z,19.10
2018-05-21T23:05:16.654Z,20.30
2018-05-21T23:10:12.274Z,19.80
2018-05-21T23:15:08.613Z,20.30
2018-05-21T23:17:36.860Z,21.00
2018-05-21T23:20:04.220Z,21.40
2018-05-21T23:25:05.842Z,20.20
2018-05-21T23:27:33.963Z,20.40
2018-05-21T23:30:01.373Z,20.90
2018-05-21T23:34:56.968Z,21.10
2018-05-21T23:39:53.220Z,19.70
2018-05-21T23:44:49.575Z,18.90
2018-05-21T23:47:17.666Z,18.70
2018-05-21T23:49:45.013Z,18.50
2018-05-21T23:54:41.431Z,18.10
2018-05-21T23:59:37.122Z,18.00
